sensor_id;sensor_type;location;lat;lon;timestamp;temperature;humidity
12436;DHT22;6282;51.440;6.938;2023-07-20T00:01:16;18.50;1.00
12436;DHT22;6282;51.440;6.938;2023-07-20T00:03:43;18.50;99.90
12436;DHT22;6282;51.440;6.938;2023-07-20T00:06:10;18.70;1.00
12436;DHT22;6282;51.440;6.938;2023-07-20T00:08:36;18.90;1.00
12436;DHT22;6282;51.440;6.938;2023-07-20T00:11:03;18.70;1.00
12436;DHT22;6282;51.440;6.938;2023-07-20T00:13:30;18.70;1.00
12436;DHT22;6282;51.440;6.938;2023-07-20T00:15:57;18.20;1.00
12436;DHT22;6282;51.440;6.938;2023-07-20T00:18:25;18.50;1.00
12436;DHT22;6282;51.440;6.938;2023-07-20T00:20:52;18.10;1.00
12436;DHT22;6282;51.440;6.938;2023-07-20T00:23:19;18.00;1.00
12436;DHT22;6282;51.440;6.938;2023-07-20T00:25:49;18.40;1.00
12436;DHT22;6282;51.440;6.938;2023-07-20T00:28:16;18.20;1.00
12436;DHT22;6282;51.440;6.938;2023-07-20T00:30:42;17.60;1.00
12436;DHT22;6282;51.440;6.938;2023-07-20T00:33:10;18.00;1.00
12436;DHT22;6282;51.440;6.938;2023-07-20T00:35:39;18.30;99.90
12436;DHT22;6282;51.440;6.938;2023-07-20T00:38:05;18.00;99.90
12436;DHT22;6282;51.440;6.938;2023-07-20T00:40:36;18.20;99.90
12436;DHT22;6282;51.440;6.938;2023-07-20T00:43:02;18.10;99.90
12436;DHT22;6282;51.440;6.938;2023-07-20T00:45:29;17.90;99.90
12436;DHT22;6282;51.440;6.938;2023-07-20T00:47:57;17.90;99.90
12436;DHT22;6282;51.440;6.938;2023-07-20T00:50:25;17.90;99.90
12436;DHT22;6282;51.440;6.938;2023-07-20T00:52:55;17.90;99.90
12436;DHT22;6282;51.440;6.938;2023-07-20T00:55:23;17.80;99.90
12436;DHT22;6282;51.440;6.938;2023-07-20T00:57:50;18.20;99.90
12436;DHT22;6282;51.440;6.938;2023-07-20T01:00:17;17.90;99.90
12436;DHT22;6282;51.440;6.938;2023-07-20T01:02:44;18.20;99.90
12436;DHT22;6282;51.440;6.938;2023-07-20T01:05:11;18.00;99.90
12436;DHT22;6282;51.440;6.938;2023-07-20T01:07:41;18.00;99.90
12436;DHT22;6282;51.440;6.938;2023-07-20T01:10:14;17.90;99.90
12436;DHT22;6282;51.440;6.938;2023-07-20T01:12:47;17.90;99.90
12436;DHT22;6282;51.440;6.938;2023-07-20T01:15:14;17.70;99.90
12436;DHT22;6282;51.440;6.938;2023-07-20T01:17:41;17.90;99.90
12436;DHT22;6282;51.440;6.938;2023-07-20T01:20:12;18.10;99.90
12436;DHT22;6282;51.440;6.938;2023-07-20T01:22:54;17.90;99.90
12436;DHT22;6282;51.440;6.938;2023-07-20T01:25:40;17.80;99.90
12436;DHT22;6282;51.440;6.938;2023-07-20T01:31:30;17.40;99.90
12436;DHT22;6282;51.440;6.938;2023-07-20T01:33:58;17.10;99.90
12436;DHT22;6282;51.440;6.938;2023-07-20T01:36:29;17.20;99.90
12436;DHT22;6282;51.440;6.938;2023-07-20T01:38:57;17.20;99.90
12436;DHT22;6282;51.440;6.938;2023-07-20T01:41:24;16.70;99.90
12436;DHT22;6282;51.440;6.938;2023-07-20T01:43:51;16.90;99.90
12436;DHT22;6282;51.440;6.938;2023-07-20T01:48:46;16.90;99.90
12436;DHT22;6282;51.440;6.938;2023-07-20T01:51:13;16.90;99.90
12436;DHT22;6282;51.440;6.938;2023-07-20T01:53:40;17.10;99.90
12436;DHT22;6282;51.440;6.938;2023-07-20T01:56:06;17.10;99.90
12436;DHT22;6282;51.440;6.938;2023-07-20T01:58:33;17.60;99.90
12436;DHT22;6282;51.440;6.938;2023-07-20T02:01:01;17.00;99.90
12436;DHT22;6282;51.440;6.938;2023-07-20T02:03:28;16.90;99.90
12436;DHT22;6282;51.440;6.938;2023-07-20T02:05:56;16.50;99.90
12436;DHT22;6282;51.440;6.938;2023-07-20T02:08:23;16.40;99.90
12436;DHT22;6282;51.440;6.938;2023-07-20T02:10:51;17.10;99.90
12436;DHT22;6282;51.440;6.938;2023-07-20T02:13:18;16.80;99.90
12436;DHT22;6282;51.440;6.938;2023-07-20T02:15:45;16.70;99.90
12436;DHT22;6282;51.440;6.938;2023-07-20T02:18:12;16.70;99.90
12436;DHT22;6282;51.440;6.938;2023-07-20T02:20:40;17.10;99.90
12436;DHT22;6282;51.440;6.938;2023-07-20T02:23:09;16.90;99.90
12436;DHT22;6282;51.440;6.938;2023-07-20T02:25:36;17.10;99.90
12436;DHT22;6282;51.440;6.938;2023-07-20T02:28:04;17.00;99.90
12436;DHT22;6282;51.440;6.938;2023-07-20T02:30:31;17.10;99.90
12436;DHT22;6282;51.440;6.938;2023-07-20T02:32:57;17.00;99.90
12436;DHT22;6282;51.440;6.938;2023-07-20T02:35:24;17.10;99.90
12436;DHT22;6282;51.440;6.938;2023-07-20T02:37:52;17.50;99.90
12436;DHT22;6282;51.440;6.938;2023-07-20T02:40:20;17.50;99.90
12436;DHT22;6282;51.440;6.938;2023-07-20T02:42:47;17.10;99.90
12436;DHT22;6282;51.440;6.938;2023-07-20T02:45:14;17.10;99.90
12436;DHT22;6282;51.440;6.938;2023-07-20T02:47:41;17.10;99.90
12436;DHT22;6282;51.440;6.938;2023-07-20T02:50:09;17.50;99.90
12436;DHT22;6282;51.440;6.938;2023-07-20T02:52:36;17.20;99.90
12436;DHT22;6282;51.440;6.938;2023-07-20T02:55:04;17.30;99.90
12436;DHT22;6282;51.440;6.938;2023-07-20T02:57:32;17.20;99.90
12436;DHT22;6282;51.440;6.938;2023-07-20T02:59:59;17.20;99.90
12436;DHT22;6282;51.440;6.938;2023-07-20T03:02:26;17.50;99.90
12436;DHT22;6282;51.440;6.938;2023-07-20T03:04:53;17.40;99.90
12436;DHT22;6282;51.440;6.938;2023-07-20T03:07:19;17.50;99.90
12436;DHT22;6282;51.440;6.938;2023-07-20T03:09:46;17.00;99.90
12436;DHT22;6282;51.440;6.938;2023-07-20T03:12:13;17.00;99.90
12436;DHT22;6282;51.440;6.938;2023-07-20T03:14:42;16.60;99.90
12436;DHT22;6282;51.440;6.938;2023-07-20T03:19:36;16.80;99.90
12436;DHT22;6282;51.440;6.938;2023-07-20T03:22:03;16.80;99.90
12436;DHT22;6282;51.440;6.938;2023-07-20T03:24:30;17.00;99.90
12436;DHT22;6282;51.440;6.938;2023-07-20T03:26:57;17.00;99.90
12436;DHT22;6282;51.440;6.938;2023-07-20T03:29:23;16.90;99.90
12436;DHT22;6282;51.440;6.938;2023-07-20T03:31:52;17.00;99.90
12436;DHT22;6282;51.440;6.938;2023-07-20T03:34:18;16.90;99.90
12436;DHT22;6282;51.440;6.938;2023-07-20T03:36:45;16.60;99.90
12436;DHT22;6282;51.440;6.938;2023-07-20T03:41:39;16.60;99.90
12436;DHT22;6282;51.440;6.938;2023-07-20T03:44:06;16.90;99.90
12436;DHT22;6282;51.440;6.938;2023-07-20T03:46:33;17.10;99.90
12436;DHT22;6282;51.440;6.938;2023-07-20T03:49:01;16.80;99.90
12436;DHT22;6282;51.440;6.938;2023-07-20T03:51:28;17.10;99.90
12436;DHT22;6282;51.440;6.938;2023-07-20T03:53:55;17.20;99.90
12436;DHT22;6282;51.440;6.938;2023-07-20T03:56:22;16.80;99.90
12436;DHT22;6282;51.440;6.938;2023-07-20T03:58:49;17.20;99.90
12436;DHT22;6282;51.440;6.938;2023-07-20T04:01:16;17.00;99.90
12436;DHT22;6282;51.440;6.938;2023-07-20T04:03:43;17.00;99.90
12436;DHT22;6282;51.440;6.938;2023-07-20T04:06:11;17.40;99.90
12436;DHT22;6282;51.440;6.938;2023-07-20T04:08:39;17.20;99.90
12436;DHT22;6282;51.440;6.938;2023-07-20T04:11:06;17.10;99.90
12436;DHT22;6282;51.440;6.938;2023-07-20T04:13:33;17.30;99.90
12436;DHT22;6282;51.440;6.938;2023-07-20T04:16:00;17.30;99.90
12436;DHT22;6282;51.440;6.938;2023-07-20T04:18:28;17.10;99.90
12436;DHT22;6282;51.440;6.938;2023-07-20T04:20:54;17.50;99.90
12436;DHT22;6282;51.440;6.938;2023-07-20T04:23:22;17.20;99.90
12436;DHT22;6282;51.440;6.938;2023-07-20T04:25:49;17.20;99.90
12436;DHT22;6282;51.440;6.938;2023-07-20T04:28:16;17.30;99.90
12436;DHT22;6282;51.440;6.938;2023-07-20T04:30:43;17.20;99.90
12436;DHT22;6282;51.440;6.938;2023-07-20T04:33:10;17.10;99.90
12436;DHT22;6282;51.440;6.938;2023-07-20T04:35:48;17.00;99.90
12436;DHT22;6282;51.440;6.938;2023-07-20T04:38:16;17.10;99.90
12436;DHT22;6282;51.440;6.938;2023-07-20T04:40:44;17.50;99.90
12436;DHT22;6282;51.440;6.938;2023-07-20T04:43:12;17.50;99.90
12436;DHT22;6282;51.440;6.938;2023-07-20T04:45:39;17.20;99.90
12436;DHT22;6282;51.440;6.938;2023-07-20T04:48:09;17.30;99.90
12436;DHT22;6282;51.440;6.938;2023-07-20T04:50:36;17.20;99.90
12436;DHT22;6282;51.440;6.938;2023-07-20T04:53:03;17.50;99.90
12436;DHT22;6282;51.440;6.938;2023-07-20T04:55:30;16.90;99.90
12436;DHT22;6282;51.440;6.938;2023-07-20T04:58:00;17.30;99.90
12436;DHT22;6282;51.440;6.938;2023-07-20T05:00:27;17.30;99.90
12436;DHT22;6282;51.440;6.938;2023-07-20T05:02:54;17.10;99.90
12436;DHT22;6282;51.440;6.938;2023-07-20T05:05:21;17.30;99.90
12436;DHT22;6282;51.440;6.938;2023-07-20T05:07:48;17.50;99.90
12436;DHT22;6282;51.440;6.938;2023-07-20T05:10:14;17.20;99.90
12436;DHT22;6282;51.440;6.938;2023-07-20T05:12:41;17.30;99.90
12436;DHT22;6282;51.440;6.938;2023-07-20T05:15:10;17.40;99.90
12436;DHT22;6282;51.440;6.938;2023-07-20T05:20:06;17.30;99.90
12436;DHT22;6282;51.440;6.938;2023-07-20T05:22:35;17.70;99.90
12436;DHT22;6282;51.440;6.938;2023-07-20T05:25:06;17.50;99.90
12436;DHT22;6282;51.440;6.938;2023-07-20T05:27:33;17.10;99.90
12436;DHT22;6282;51.440;6.938;2023-07-20T05:30:00;17.30;99.90
12436;DHT22;6282;51.440;6.938;2023-07-20T05:32:28;16.60;99.90
12436;DHT22;6282;51.440;6.938;2023-07-20T05:34:55;17.30;99.90
12436;DHT22;6282;51.440;6.938;2023-07-20T05:37:22;17.20;99.90
12436;DHT22;6282;51.440;6.938;2023-07-20T05:39:49;17.40;99.90
12436;DHT22;6282;51.440;6.938;2023-07-20T05:42:16;17.70;99.90
12436;DHT22;6282;51.440;6.938;2023-07-20T05:44:43;17.70;99.90
12436;DHT22;6282;51.440;6.938;2023-07-20T05:47:09;17.90;99.90
12436;DHT22;6282;51.440;6.938;2023-07-20T05:49:38;18.00;99.90
12436;DHT22;6282;51.440;6.938;2023-07-20T05:52:05;18.20;99.90
12436;DHT22;6282;51.440;6.938;2023-07-20T05:54:32;18.00;99.90
12436;DHT22;6282;51.440;6.938;2023-07-20T05:56:59;18.20;99.90
12436;DHT22;6282;51.440;6.938;2023-07-20T05:59:27;18.20;99.90
12436;DHT22;6282;51.440;6.938;2023-07-20T06:01:55;18.10;99.90
12436;DHT22;6282;51.440;6.938;2023-07-20T06:04:21;17.70;99.90
12436;DHT22;6282;51.440;6.938;2023-07-20T06:06:49;18.30;99.90
12436;DHT22;6282;51.440;6.938;2023-07-20T06:09:16;18.30;99.90
12436;DHT22;6282;51.440;6.938;2023-07-20T06:11:43;18.70;99.90
12436;DHT22;6282;51.440;6.938;2023-07-20T06:14:10;18.80;99.90
12436;DHT22;6282;51.440;6.938;2023-07-20T06:16:37;18.80;99.90
12436;DHT22;6282;51.440;6.938;2023-07-20T06:19:03;18.90;99.90
12436;DHT22;6282;51.440;6.938;2023-07-20T06:21:30;18.90;99.90
12436;DHT22;6282;51.440;6.938;2023-07-20T06:23:58;18.80;99.90
12436;DHT22;6282;51.440;6.938;2023-07-20T06:26:25;18.90;99.90
12436;DHT22;6282;51.440;6.938;2023-07-20T06:28:52;18.50;99.90
12436;DHT22;6282;51.440;6.938;2023-07-20T06:31:19;18.60;99.90
12436;DHT22;6282;51.440;6.938;2023-07-20T06:33:45;18.70;99.90
12436;DHT22;6282;51.440;6.938;2023-07-20T06:36:12;18.40;99.90
12436;DHT22;6282;51.440;6.938;2023-07-20T06:38:39;18.10;99.90
12436;DHT22;6282;51.440;6.938;2023-07-20T06:41:07;17.70;99.90
12436;DHT22;6282;51.440;6.938;2023-07-20T06:43:34;18.30;99.90
12436;DHT22;6282;51.440;6.938;2023-07-20T06:46:01;18.20;99.90
12436;DHT22;6282;51.440;6.938;2023-07-20T06:48:28;17.80;99.90
12436;DHT22;6282;51.440;6.938;2023-07-20T06:50:55;17.80;99.90
12436;DHT22;6282;51.440;6.938;2023-07-20T06:53:22;17.90;99.90
12436;DHT22;6282;51.440;6.938;2023-07-20T06:55:49;17.90;99.90
12436;DHT22;6282;51.440;6.938;2023-07-20T06:58:17;18.10;99.90
12436;DHT22;6282;51.440;6.938;2023-07-20T07:00:44;18.20;99.90
12436;DHT22;6282;51.440;6.938;2023-07-20T07:03:11;18.30;99.90
12436;DHT22;6282;51.440;6.938;2023-07-20T07:05:38;18.50;99.90
12436;DHT22;6282;51.440;6.938;2023-07-20T07:08:05;19.30;99.90
12436;DHT22;6282;51.440;6.938;2023-07-20T07:10:32;20.30;99.90
12436;DHT22;6282;51.440;6.938;2023-07-20T07:12:59;20.50;99.90
12436;DHT22;6282;51.440;6.938;2023-07-20T07:15:27;22.60;99.90
12436;DHT22;6282;51.440;6.938;2023-07-20T07:17:54;24.40;99.90
12436;DHT22;6282;51.440;6.938;2023-07-20T07:20:21;25.50;99.90
12436;DHT22;6282;51.440;6.938;2023-07-20T07:22:50;27.90;1.00
12436;DHT22;6282;51.440;6.938;2023-07-20T07:25:18;27.90;99.90
12436;DHT22;6282;51.440;6.938;2023-07-20T07:27:44;28.40;99.90
12436;DHT22;6282;51.440;6.938;2023-07-20T07:30:12;26.90;99.90
12436;DHT22;6282;51.440;6.938;2023-07-20T07:32:42;25.60;99.90
12436;DHT22;6282;51.440;6.938;2023-07-20T07:35:08;25.60;99.90
12436;DHT22;6282;51.440;6.938;2023-07-20T07:37:35;24.40;99.90
12436;DHT22;6282;51.440;6.938;2023-07-20T07:40:03;23.50;1.00
12436;DHT22;6282;51.440;6.938;2023-07-20T07:42:31;22.60;99.90
12436;DHT22;6282;51.440;6.938;2023-07-20T07:44:58;22.10;1.00
12436;DHT22;6282;51.440;6.938;2023-07-20T07:47:25;21.60;1.00
12436;DHT22;6282;51.440;6.938;2023-07-20T07:49:53;21.40;1.00
12436;DHT22;6282;51.440;6.938;2023-07-20T07:52:20;22.60;1.00
12436;DHT22;6282;51.440;6.938;2023-07-20T07:54:47;24.40;1.00
12436;DHT22;6282;51.440;6.938;2023-07-20T07:57:13;25.30;99.90
12436;DHT22;6282;51.440;6.938;2023-07-20T07:59:40;25.00;1.00
12436;DHT22;6282;51.440;6.938;2023-07-20T08:02:07;24.40;99.90
12436;DHT22;6282;51.440;6.938;2023-07-20T08:04:34;23.60;93.40
12436;DHT22;6282;51.440;6.938;2023-07-20T08:07:04;23.70;99.90
12436;DHT22;6282;51.440;6.938;2023-07-20T08:09:31;23.90;94.90
12436;DHT22;6282;51.440;6.938;2023-07-20T08:11:58;23.40;1.00
12436;DHT22;6282;51.440;6.938;2023-07-20T08:14:25;22.80;99.90
12436;DHT22;6282;51.440;6.938;2023-07-20T08:16:52;22.60;99.90
12436;DHT22;6282;51.440;6.938;2023-07-20T08:19:20;23.60;99.90
12436;DHT22;6282;51.440;6.938;2023-07-20T08:21:47;24.10;99.90
12436;DHT22;6282;51.440;6.938;2023-07-20T08:24:15;25.90;1.00
12436;DHT22;6282;51.440;6.938;2023-07-20T08:26:42;27.00;99.90
12436;DHT22;6282;51.440;6.938;2023-07-20T08:29:08;27.60;99.90
12436;DHT22;6282;51.440;6.938;2023-07-20T08:31:35;28.60;1.00
12436;DHT22;6282;51.440;6.938;2023-07-20T08:34:02;28.90;99.90
12436;DHT22;6282;51.440;6.938;2023-07-20T08:36:29;29.50;99.90
12436;DHT22;6282;51.440;6.938;2023-07-20T08:38:57;29.60;99.90
12436;DHT22;6282;51.440;6.938;2023-07-20T08:41:25;28.60;99.90
12436;DHT22;6282;51.440;6.938;2023-07-20T08:43:54;26.90;99.90
12436;DHT22;6282;51.440;6.938;2023-07-20T08:46:22;26.30;99.90
12436;DHT22;6282;51.440;6.938;2023-07-20T08:48:50;25.80;99.90
12436;DHT22;6282;51.440;6.938;2023-07-20T08:51:18;24.90;99.90
12436;DHT22;6282;51.440;6.938;2023-07-20T08:53:47;24.90;1.00
12436;DHT22;6282;51.440;6.938;2023-07-20T08:56:16;26.30;99.90
12436;DHT22;6282;51.440;6.938;2023-07-20T08:58:44;27.40;99.90
12436;DHT22;6282;51.440;6.938;2023-07-20T09:01:12;28.30;99.90
12436;DHT22;6282;51.440;6.938;2023-07-20T09:03:40;29.10;99.90
12436;DHT22;6282;51.440;6.938;2023-07-20T09:06:08;30.30;99.90
12436;DHT22;6282;51.440;6.938;2023-07-20T09:08:38;31.00;99.90
12436;DHT22;6282;51.440;6.938;2023-07-20T09:11:05;32.20;99.90
12436;DHT22;6282;51.440;6.938;2023-07-20T09:13:32;32.90;99.90
12436;DHT22;6282;51.440;6.938;2023-07-20T09:16:01;33.10;99.90
12436;DHT22;6282;51.440;6.938;2023-07-20T09:18:30;32.80;99.90
12436;DHT22;6282;51.440;6.938;2023-07-20T09:21:02;32.20;99.90
12436;DHT22;6282;51.440;6.938;2023-07-20T09:23:31;31.20;99.90
12436;DHT22;6282;51.440;6.938;2023-07-20T09:25:58;31.20;99.90
12436;DHT22;6282;51.440;6.938;2023-07-20T09:28:25;31.40;99.90
12436;DHT22;6282;51.440;6.938;2023-07-20T09:30:54;30.90;99.90
12436;DHT22;6282;51.440;6.938;2023-07-20T09:33:24;30.00;99.90
12436;DHT22;6282;51.440;6.938;2023-07-20T09:35:51;31.00;99.90
12436;DHT22;6282;51.440;6.938;2023-07-20T09:38:18;31.70;99.90
12436;DHT22;6282;51.440;6.938;2023-07-20T09:40:44;31.80;99.90
12436;DHT22;6282;51.440;6.938;2023-07-20T09:43:11;32.10;99.90
12436;DHT22;6282;51.440;6.938;2023-07-20T09:45:42;31.00;99.90
12436;DHT22;6282;51.440;6.938;2023-07-20T09:48:10;28.60;99.90
12436;DHT22;6282;51.440;6.938;2023-07-20T09:50:41;27.30;99.90
12436;DHT22;6282;51.440;6.938;2023-07-20T09:53:11;25.90;99.90
12436;DHT22;6282;51.440;6.938;2023-07-20T09:55:40;24.90;99.90
12436;DHT22;6282;51.440;6.938;2023-07-20T09:58:09;24.30;99.90
12436;DHT22;6282;51.440;6.938;2023-07-20T10:00:36;24.10;99.90
12436;DHT22;6282;51.440;6.938;2023-07-20T10:03:04;25.30;99.90
12436;DHT22;6282;51.440;6.938;2023-07-20T10:05:33;26.70;99.90
12436;DHT22;6282;51.440;6.938;2023-07-20T10:08:02;27.10;99.90
12436;DHT22;6282;51.440;6.938;2023-07-20T10:10:33;26.90;99.90
12436;DHT22;6282;51.440;6.938;2023-07-20T10:13:01;26.40;99.90
12436;DHT22;6282;51.440;6.938;2023-07-20T10:15:33;25.70;99.90
12436;DHT22;6282;51.440;6.938;2023-07-20T10:18:07;24.90;99.90
12436;DHT22;6282;51.440;6.938;2023-07-20T10:20:36;24.60;99.90
12436;DHT22;6282;51.440;6.938;2023-07-20T10:23:07;24.40;99.90
12436;DHT22;6282;51.440;6.938;2023-07-20T10:25:34;24.20;99.90
12436;DHT22;6282;51.440;6.938;2023-07-20T10:28:04;24.10;99.90
12436;DHT22;6282;51.440;6.938;2023-07-20T10:30:32;24.00;99.90
12436;DHT22;6282;51.440;6.938;2023-07-20T10:32:59;24.00;99.90
12436;DHT22;6282;51.440;6.938;2023-07-20T10:35:28;23.80;99.90
12436;DHT22;6282;51.440;6.938;2023-07-20T10:38:00;23.50;99.90
12436;DHT22;6282;51.440;6.938;2023-07-20T10:40:30;23.40;99.90
12436;DHT22;6282;51.440;6.938;2023-07-20T10:43:03;22.90;99.90
12436;DHT22;6282;51.440;6.938;2023-07-20T10:45:39;23.10;99.90
12436;DHT22;6282;51.440;6.938;2023-07-20T10:48:13;23.00;99.90
12436;DHT22;6282;51.440;6.938;2023-07-20T10:50:41;23.20;99.90
12436;DHT22;6282;51.440;6.938;2023-07-20T10:53:13;23.00;99.90
12436;DHT22;6282;51.440;6.938;2023-07-20T10:55:42;23.10;99.90
12436;DHT22;6282;51.440;6.938;2023-07-20T10:58:11;22.90;99.90
12436;DHT22;6282;51.440;6.938;2023-07-20T11:00:58;23.00;99.90
12436;DHT22;6282;51.440;6.938;2023-07-20T11:03:30;23.30;99.90
12436;DHT22;6282;51.440;6.938;2023-07-20T11:05:58;23.30;99.90
12436;DHT22;6282;51.440;6.938;2023-07-20T11:08:41;23.10;99.90
12436;DHT22;6282;51.440;6.938;2023-07-20T11:11:26;23.00;99.90
12436;DHT22;6282;51.440;6.938;2023-07-20T11:13:55;23.00;99.90
12436;DHT22;6282;51.440;6.938;2023-07-20T11:16:34;23.10;99.90
12436;DHT22;6282;51.440;6.938;2023-07-20T11:19:01;23.40;99.90
12436;DHT22;6282;51.440;6.938;2023-07-20T11:21:28;23.30;99.90
12436;DHT22;6282;51.440;6.938;2023-07-20T11:23:55;23.60;99.90
12436;DHT22;6282;51.440;6.938;2023-07-20T11:26:22;23.80;99.90
12436;DHT22;6282;51.440;6.938;2023-07-20T11:28:51;23.90;99.90
12436;DHT22;6282;51.440;6.938;2023-07-20T11:31:18;23.80;99.90
12436;DHT22;6282;51.440;6.938;2023-07-20T11:33:45;23.70;99.90
12436;DHT22;6282;51.440;6.938;2023-07-20T11:36:12;23.60;99.90
12436;DHT22;6282;51.440;6.938;2023-07-20T11:38:41;23.60;99.90
12436;DHT22;6282;51.440;6.938;2023-07-20T11:41:09;23.70;99.90
12436;DHT22;6282;51.440;6.938;2023-07-20T11:43:37;23.50;99.90
12436;DHT22;6282;51.440;6.938;2023-07-20T11:46:06;23.20;99.90
12436;DHT22;6282;51.440;6.938;2023-07-20T11:48:34;23.20;99.90
12436;DHT22;6282;51.440;6.938;2023-07-20T11:51:01;23.40;99.90
12436;DHT22;6282;51.440;6.938;2023-07-20T11:53:28;23.50;99.90
12436;DHT22;6282;51.440;6.938;2023-07-20T11:55:55;23.80;99.90
12436;DHT22;6282;51.440;6.938;2023-07-20T11:58:22;24.00;99.90
12436;DHT22;6282;51.440;6.938;2023-07-20T12:00:49;24.10;99.90
12436;DHT22;6282;51.440;6.938;2023-07-20T12:03:18;24.00;99.90
12436;DHT22;6282;51.440;6.938;2023-07-20T12:05:45;23.70;99.90
12436;DHT22;6282;51.440;6.938;2023-07-20T12:08:12;23.30;99.90
12436;DHT22;6282;51.440;6.938;2023-07-20T12:10:40;23.30;99.90
12436;DHT22;6282;51.440;6.938;2023-07-20T12:13:10;23.50;99.90
12436;DHT22;6282;51.440;6.938;2023-07-20T12:15:37;23.70;99.90
12436;DHT22;6282;51.440;6.938;2023-07-20T12:18:05;24.10;99.90
12436;DHT22;6282;51.440;6.938;2023-07-20T12:20:35;24.20;99.90
12436;DHT22;6282;51.440;6.938;2023-07-20T12:23:04;24.50;99.90
12436;DHT22;6282;51.440;6.938;2023-07-20T12:25:37;24.40;99.90
12436;DHT22;6282;51.440;6.938;2023-07-20T12:28:05;24.30;99.90
12436;DHT22;6282;51.440;6.938;2023-07-20T12:30:32;24.10;99.90
12436;DHT22;6282;51.440;6.938;2023-07-20T12:32:59;24.20;99.90
12436;DHT22;6282;51.440;6.938;2023-07-20T12:35:26;24.40;99.90
12436;DHT22;6282;51.440;6.938;2023-07-20T12:37:54;24.60;99.90
12436;DHT22;6282;51.440;6.938;2023-07-20T12:40:21;24.60;99.90
12436;DHT22;6282;51.440;6.938;2023-07-20T12:42:48;24.50;99.90
12436;DHT22;6282;51.440;6.938;2023-07-20T12:45:15;24.30;99.90
12436;DHT22;6282;51.440;6.938;2023-07-20T12:47:42;24.20;99.90
12436;DHT22;6282;51.440;6.938;2023-07-20T12:50:09;24.00;99.90
12436;DHT22;6282;51.440;6.938;2023-07-20T12:52:36;23.80;99.90
12436;DHT22;6282;51.440;6.938;2023-07-20T12:55:07;23.80;99.90
12436;DHT22;6282;51.440;6.938;2023-07-20T12:57:34;23.60;99.90
12436;DHT22;6282;51.440;6.938;2023-07-20T13:00:02;23.80;99.90
12436;DHT22;6282;51.440;6.938;2023-07-20T13:02:30;24.00;99.90
12436;DHT22;6282;51.440;6.938;2023-07-20T13:04:57;24.30;99.90
12436;DHT22;6282;51.440;6.938;2023-07-20T13:07:31;24.40;99.90
12436;DHT22;6282;51.440;6.938;2023-07-20T13:09:58;24.50;99.90
12436;DHT22;6282;51.440;6.938;2023-07-20T13:12:27;24.60;99.90
12436;DHT22;6282;51.440;6.938;2023-07-20T13:14:54;24.70;99.90
12436;DHT22;6282;51.440;6.938;2023-07-20T13:17:21;24.60;99.90
12436;DHT22;6282;51.440;6.938;2023-07-20T13:19:48;24.70;99.90
12436;DHT22;6282;51.440;6.938;2023-07-20T13:22:15;24.60;99.90
12436;DHT22;6282;51.440;6.938;2023-07-20T13:24:44;24.60;99.90
12436;DHT22;6282;51.440;6.938;2023-07-20T13:29:39;24.10;99.90
12436;DHT22;6282;51.440;6.938;2023-07-20T13:32:07;24.00;99.90
12436;DHT22;6282;51.440;6.938;2023-07-20T13:34:34;24.00;99.90
12436;DHT22;6282;51.440;6.938;2023-07-20T13:37:02;24.30;99.90
12436;DHT22;6282;51.440;6.938;2023-07-20T13:39:29;24.60;99.90
12436;DHT22;6282;51.440;6.938;2023-07-20T13:41:55;24.40;99.90
12436;DHT22;6282;51.440;6.938;2023-07-20T13:44:22;24.40;99.90
12436;DHT22;6282;51.440;6.938;2023-07-20T13:46:50;24.40;99.90
12436;DHT22;6282;51.440;6.938;2023-07-20T13:49:17;24.20;99.90
12436;DHT22;6282;51.440;6.938;2023-07-20T13:51:44;24.30;99.90
12436;DHT22;6282;51.440;6.938;2023-07-20T13:54:12;24.40;99.90
12436;DHT22;6282;51.440;6.938;2023-07-20T13:56:38;24.30;99.90
12436;DHT22;6282;51.440;6.938;2023-07-20T13:59:05;24.40;99.90
12436;DHT22;6282;51.440;6.938;2023-07-20T14:01:32;24.10;99.90
12436;DHT22;6282;51.440;6.938;2023-07-20T14:04:02;24.00;99.90
12436;DHT22;6282;51.440;6.938;2023-07-20T14:06:31;23.60;99.90
12436;DHT22;6282;51.440;6.938;2023-07-20T14:08:58;23.60;99.90
12436;DHT22;6282;51.440;6.938;2023-07-20T14:11:26;23.80;99.90
12436;DHT22;6282;51.440;6.938;2023-07-20T14:13:53;23.90;99.90
12436;DHT22;6282;51.440;6.938;2023-07-20T14:16:20;24.00;99.90
12436;DHT22;6282;51.440;6.938;2023-07-20T14:18:47;24.20;99.90
12436;DHT22;6282;51.440;6.938;2023-07-20T14:21:16;24.40;99.90
12436;DHT22;6282;51.440;6.938;2023-07-20T14:23:45;24.50;99.90
12436;DHT22;6282;51.440;6.938;2023-07-20T14:26:12;24.60;99.90
12436;DHT22;6282;51.440;6.938;2023-07-20T14:28:39;24.70;99.90
12436;DHT22;6282;51.440;6.938;2023-07-20T14:31:06;24.70;99.90
12436;DHT22;6282;51.440;6.938;2023-07-20T14:33:33;24.90;99.90
12436;DHT22;6282;51.440;6.938;2023-07-20T14:36:00;25.00;99.90
12436;DHT22;6282;51.440;6.938;2023-07-20T14:38:28;24.90;99.90
12436;DHT22;6282;51.440;6.938;2023-07-20T14:40:55;25.00;99.90
12436;DHT22;6282;51.440;6.938;2023-07-20T14:43:22;24.70;99.90
12436;DHT22;6282;51.440;6.938;2023-07-20T14:45:49;24.70;99.90
12436;DHT22;6282;51.440;6.938;2023-07-20T14:48:16;24.60;99.90
12436;DHT22;6282;51.440;6.938;2023-07-20T14:50:43;24.50;99.90
12436;DHT22;6282;51.440;6.938;2023-07-20T14:53:11;24.40;99.90
12436;DHT22;6282;51.440;6.938;2023-07-20T14:55:39;24.40;99.90
12436;DHT22;6282;51.440;6.938;2023-07-20T14:58:06;24.30;99.90
12436;DHT22;6282;51.440;6.938;2023-07-20T15:00:33;24.30;99.90
12436;DHT22;6282;51.440;6.938;2023-07-20T15:03:00;24.30;99.90
12436;DHT22;6282;51.440;6.938;2023-07-20T15:05:27;24.50;99.90
12436;DHT22;6282;51.440;6.938;2023-07-20T15:07:54;24.60;99.90
12436;DHT22;6282;51.440;6.938;2023-07-20T15:10:21;25.00;99.90
12436;DHT22;6282;51.440;6.938;2023-07-20T15:12:50;25.10;99.90
12436;DHT22;6282;51.440;6.938;2023-07-20T15:15:16;25.30;99.90
12436;DHT22;6282;51.440;6.938;2023-07-20T15:17:44;25.20;99.90
12436;DHT22;6282;51.440;6.938;2023-07-20T15:20:12;24.90;99.90
12436;DHT22;6282;51.440;6.938;2023-07-20T15:22:40;24.80;99.90
12436;DHT22;6282;51.440;6.938;2023-07-20T15:25:08;24.80;99.90
12436;DHT22;6282;51.440;6.938;2023-07-20T15:27:36;24.60;99.90
12436;DHT22;6282;51.440;6.938;2023-07-20T15:30:06;25.00;99.90
12436;DHT22;6282;51.440;6.938;2023-07-20T15:32:33;24.90;99.90
12436;DHT22;6282;51.440;6.938;2023-07-20T15:35:00;25.20;99.90
12436;DHT22;6282;51.440;6.938;2023-07-20T15:37:29;25.00;99.90
12436;DHT22;6282;51.440;6.938;2023-07-20T15:39:57;25.10;99.90
12436;DHT22;6282;51.440;6.938;2023-07-20T15:42:23;25.30;99.90
12436;DHT22;6282;51.440;6.938;2023-07-20T15:44:51;25.40;99.90
12436;DHT22;6282;51.440;6.938;2023-07-20T15:47:19;25.60;99.90
12436;DHT22;6282;51.440;6.938;2023-07-20T15:49:46;25.70;99.90
12436;DHT22;6282;51.440;6.938;2023-07-20T15:52:13;25.10;99.90
12436;DHT22;6282;51.440;6.938;2023-07-20T15:54:40;25.00;99.90
12436;DHT22;6282;51.440;6.938;2023-07-20T15:57:07;25.00;99.90
12436;DHT22;6282;51.440;6.938;2023-07-20T15:59:37;25.10;99.90
12436;DHT22;6282;51.440;6.938;2023-07-20T16:02:05;24.60;99.90
12436;DHT22;6282;51.440;6.938;2023-07-20T16:04:34;24.60;99.90
12436;DHT22;6282;51.440;6.938;2023-07-20T16:07:01;24.60;99.90